Santa Fe, TX

1:02 PM CDT on June 22, 2017 (GMT -0500)
K5ZXZ - Santa Fe, TX | | Change Station

Elev 30 ft 29.38 °N, 95.10 °W | Updated 18 seconds ago

Mostly Cloudy
Mostly Cloudy
81.7 °F
Feels Like 89 °F
N
2.0
Wind Variable Wind from WSW
Gusts 4.0 mph

Today
High -- | Low -- °F
--% Chance of Precip.
Yesterday
High -- | Low -- °F
Precip. -- in
Pressure 29.73 in
Visibility 10.0 miles
Clouds Few 2000 ft
Mostly Cloudy 3300 ft
Mostly Cloudy 7000 ft
Heat Index 89 °F
Dew Point 76 °F
Humidity 83%
Rainfall 0.95 in
Snow Depth Not available.
6:21 AM 8:23 PM
Waning Crescent, 3% visible
METAR KLVJ 221753Z AUTO 25008G16KT 10SM FEW020 BKN033 BKN070 28/23 A2973 RMK AO2 SLP065 60004 T02830228 10283 20250 51013
Pressure 29.73 in
Visibility 10.0 miles
Clouds Few 2000 ft
Mostly Cloudy 3300 ft
Mostly Cloudy 7000 ft
Heat Index 89 °F
Dew Point 76 °F
Humidity 83%
Rainfall 0.95 in
Snow Depth Not available.
6:21 AM 8:23 PM
Waning Crescent, 3% visible
METAR KLVJ 221753Z AUTO 25008G16KT 10SM FEW020 BKN033 BKN070 28/23 A2973 RMK AO2 SLP065 60004 T02830228 10283 20250 51013

Get Severe Weather Alerts

Thanks for signing up!

Be on the lookout for a verification email in your inbox.

You'll start receiving the daily forecast at 6 AM.

×

10-Day Weather Forecast

Almanac

Astronomy

Jun. 22, 2017 Rise Set
Actual Time
Civil Twilight
Nautical Twilight
Astronomical Twilight
Moon
Length of Visible Light
Length of Day
Tomorrow will be .
, % of the Moon is Illuminated

Today's Extremes

State Highs State Lows

Community

WunderPhotos

Category 6

Welcome to Category 6. This is the collective home for Weather Underground's featured writeups by Dr. Jeff Masters (right), Bob Henson (left), Chris Burt, and other regular contributors.

Nearby

Air Quality

  Air Quality AQ Index Pollutant
Not available.

Snow Depth

Station Depth Elevation

Earthquake Activity

City Distance Mag. Time & Date
Minimum magnitude displayed is 2.5.

Coastal Water Temperatures

Place Temperature

Stations

Nearby Weather Stations

Station Location Temp. Windchill Dew Point Humidity Wind Precip. Elev Updated Type
                   

Watches & Warnings

There are currently no watches in effect.